Forside
METAR-TAF:

METAR-TAF

Lufthavne :

Novosibirsk, Rusland

Breddekreds: 55-01N, længdekreds: 082-38E, højde: 111 m

Aktuelle vejr

Denne rapport blev lavet for 34 minutter siden, kl. 19:30 UTC
Vind 2 kt fra varierende retninger
Temperatur 16°C
Fugtighed 100%
Tryk 1005 hPa
Sigt: 9000 m

METAR: UNNT 221930Z VRB01MPS 9000 NSC 16/16 Q1005 R25/090070 R16/090070 NOSIG RMK QFE744/0992

Tid: 03:04 (20:04 UTC)

Vejrudsigter

Denne rapport blev lavet for 3 timer og 4 minutter siden, kl. 17:00 UTC
Foreløbig gælder fra 22 på 18 UTC til 23 på 18 UTC
Vind 6 kt fra vestnordvest med vindstød på up til 16 kt
Sigt: 8000 m
Brudte skyer i en højde af 4000 ft, Cumulonimbus.
Midlertidig
fra 22 på 18 UTC til 23 på 01 UTC
Sigt: 0150 m
Brudte skyer i en højde af 200 ft
tåge
ændring
fra 23 på 12 UTC til 23 på 15 UTC
Vind 6 kt fra syd med vindstød på up til 16 kt

TAF: UNNT 221700Z 2218/2318 30003G08MPS 8000 BKN040CB TX25/2309Z TN15/2222Z TEMPO 2218/2301 0150 FG BKN002 BECMG 2312/2315 17003G08MPS

Vejrobservationer og prognoser fra mere end 4000 lufthavne (METAR og TAF).

De gule og røde prikker repræsenterer de meteorologiske stationer.

Flyt musen over at se navnet på stationen.

Så klik over at se vejr observationer og prognoser.

At skifte det kort: Klik på de grønne knapper med et sort kors for at zoome ind; på den grønne knap med en bindestreg for at zoome ud; eller på de grønne pile for tilstødende kort.


METAR-TAF: